Time;durP1;ratioP1;P1;durP2;ratioP2;P2;SDS_P1;SDS_P2;PMS_P1;PMS_P2;Temp;Humidity;BMP_temperature;BMP_pressure;BME280_temperature;BME280_humidity;BME280_pressure;Samples;Min_cycle;Max_cycle;Signal;HPM_P1;HPM_P2
2022/06/01 00:01:51;;;;;;;6.85;5.07;;;;;;;10.19;51.08;101281.97;4938891;28;20031;-78
2022/06/01 00:04:18;;;;;;;6.68;5.63;;;;;;;10.29;50.64;101274.72;4944688;28;20043;-78
2022/06/01 00:06:44;;;;;;;7.13;5.40;;;;;;;10.31;50.47;101281.59;4949724;28;20031;-79
2022/06/01 00:09:10;;;;;;;9.68;5.97;;;;;;;10.36;50.47;101281.44;4950727;28;20031;-77
2022/06/01 00:11:36;;;;;;;7.00;6.07;;;;;;;10.34;50.35;101285.84;4950114;28;20043;-78
2022/06/01 00:14:02;;;;;;;5.53;4.93;;;;;;;10.22;50.36;101274.91;4949098;28;20039;-76
2022/06/01 00:16:28;;;;;;;5.65;5.05;;;;;;;10.15;50.47;101278.63;4957904;28;20123;-76
2022/06/01 00:18:53;;;;;;;7.18;5.55;;;;;;;10.06;50.63;101273.69;4965534;28;20470;-78
2022/06/01 00:21:19;;;;;;;8.07;4.75;;;;;;;10.05;51.00;101269.34;4968927;28;20078;-76
2022/06/01 00:23:45;;;;;;;7.00;4.85;;;;;;;10.12;51.24;101264.78;4958894;28;20066;-78
2022/06/01 00:26:10;;;;;;;7.63;5.78;;;;;;;10.24;50.72;101266.19;4962617;28;20441;-77
2022/06/01 00:28:36;;;;;;;10.25;6.03;;;;;;;10.27;50.37;101266.06;4973579;28;20043;-78
2022/06/01 00:31:03;;;;;;;7.68;5.40;;;;;;;10.29;50.31;101264.25;4973524;28;20125;-78
2022/06/01 00:33:29;;;;;;;9.02;6.90;;;;;;;10.29;50.32;101269.50;4962939;28;20078;-77
2022/06/01 00:35:55;;;;;;;7.72;5.68;;;;;;;10.33;50.42;101268.50;4960143;28;20041;-77
2022/06/01 00:38:22;;;;;;;7.25;6.18;;;;;;;10.35;50.42;101271.91;4960883;28;20423;-78
2022/06/01 00:40:48;;;;;;;6.35;5.57;;;;;;;10.29;50.45;101272.09;4944031;28;20030;-77
2022/06/01 00:43:36;;;;;;;7.20;5.72;;;;;;;10.22;50.36;101274.91;4962191;28;20042;-78
2022/06/01 00:46:02;;;;;;;6.97;5.40;;;;;;;10.21;50.55;101273.22;4959382;28;20035;-78
2022/06/01 00:48:30;;;;;;;7.88;6.97;;;;;;;10.26;50.72;101272.19;4955668;28;20054;-76
2022/06/01 00:50:56;;;;;;;8.27;6.45;;;;;;;10.18;50.45;101275.91;4959702;28;20689;-78
2022/06/01 00:53:29;;;;;;;8.52;6.88;;;;;;;10.19;50.69;101275.00;4969831;28;20082;-77
2022/06/01 00:56:02;;;;;;;8.70;6.03;;;;;;;10.18;50.46;101272.44;4958527;28;20074;-79
2022/06/01 00:58:34;;;;;;;8.07;5.43;;;;;;;10.12;50.90;101264.78;4954687;28;20194;-78
2022/06/01 01:01:00;;;;;;;7.22;6.20;;;;;;;10.20;50.54;101262.81;4959156;28;20050;-76
2022/06/01 01:03:30;;;;;;;9.82;7.18;;;;;;;10.19;50.42;101268.91;4969020;28;20062;-75
2022/06/01 01:06:05;;;;;;;8.82;6.35;;;;;;;10.08;50.65;101269.28;4971826;28;20078;-78
2022/06/01 01:08:31;;;;;;;6.47;5.88;;;;;;;10.00;50.87;101263.44;4969908;28;20047;-77
2022/06/01 01:10:57;;;;;;;7.28;5.72;;;;;;;9.96;50.77;101257.44;4960074;28;20517;-78
2022/06/01 01:13:23;;;;;;;7.05;5.95;;;;;;;9.90;50.93;101256.78;4947676;28;20105;-77
2022/06/01 01:15:52;;;;;;;6.60;5.85;;;;;;;9.85;51.08;101253.47;4961441;28;20049;-77
2022/06/01 01:18:22;;;;;;;7.45;6.65;;;;;;;9.83;50.76;101252.66;4964820;28;20047;-78
2022/06/01 01:20:54;;;;;;;8.40;6.68;;;;;;;9.69;51.04;101253.91;4959121;28;20049;-77
2022/06/01 01:23:31;;;;;;;7.45;5.95;;;;;;;9.63;50.79;101251.47;4973734;28;20530;-78
2022/06/01 01:25:57;;;;;;;9.40;7.57;;;;;;;9.47;51.27;101252.81;4961320;28;20117;-77
2022/06/01 01:28:22;;;;;;;5.38;4.85;;;;;;;9.39;51.37;101251.31;4959520;28;20509;-78
2022/06/01 01:31:07;;;;;;;7.97;6.22;;;;;;;9.32;51.73;101251.50;4972156;28;20038;-78
2022/06/01 01:33:33;;;;;;;5.72;5.13;;;;;;;9.31;51.65;101255.88;4954777;28;20085;-77
2022/06/01 01:36:07;;;;;;;11.65;6.95;;;;;;;9.20;51.79;101252.72;4941473;28;20620;-79
2022/06/01 01:38:51;;;;;;;8.40;6.97;;;;;;;9.17;52.12;101253.66;4970538;28;20050;-77
2022/06/01 01:41:26;;;;;;;8.93;7.25;;;;;;;9.20;51.94;101239.69;4954815;28;20078;-78
2022/06/01 01:43:59;;;;;;;6.78;5.85;;;;;;;9.14;52.23;101250.28;4971280;28;20055;-79
2022/06/01 01:46:25;;;;;;;9.27;7.22;;;;;;;9.11;52.54;101242.53;4957717;28;20053;-79
2022/06/01 01:48:51;;;;;;;11.68;7.05;;;;;;;9.03;52.17;101241.91;4961379;28;20043;-78
2022/06/01 01:51:22;;;;;;;11.27;7.25;;;;;;;9.06;52.58;101247.03;4962074;28;20137;-76
2022/06/01 01:53:49;;;;;;;9.63;7.63;;;;;;;9.11;52.31;101240.78;4955500;28;20043;-78
2022/06/01 01:56:33;;;;;;;9.80;7.28;;;;;;;9.15;52.15;101233.75;4957051;28;20031;-77
2022/06/01 01:59:05;;;;;;;8.77;6.90;;;;;;;9.22;52.21;101234.44;4968439;28;20138;-78
2022/06/01 02:01:45;;;;;;;7.30;6.50;;;;;;;9.25;52.10;101232.56;4970330;28;20046;-77
2022/06/01 02:07:11;;;;;;;7.93;6.65;;;;;;;9.23;52.42;101229.19;4971382;28;20042;-76
2022/06/01 02:15:08;;;;;;;9.23;6.75;;;;;;;9.35;51.80;101236.63;4973461;28;20030;-76
2022/06/01 02:17:44;;;;;;;10.95;7.45;;;;;;;9.34;52.23;101231.44;4948273;28;20039;-77
2022/06/01 02:20:16;;;;;;;8.70;7.70;;;;;;;9.39;52.13;101233.03;4970607;28;21150;-76
2022/06/01 02:22:42;;;;;;;8.07;7.25;;;;;;;9.44;51.96;101232.06;4961563;28;20059;-78
2022/06/01 02:25:11;;;;;;;9.75;7.47;;;;;;;9.43;52.17;101236.41;4959328;28;20303;-77
2022/06/01 02:27:39;;;;;;;10.25;8.30;;;;;;;9.37;52.12;101237.44;4972666;28;20465;-79
2022/06/01 02:30:14;;;;;;;8.70;7.15;;;;;;;9.33;52.42;101233.22;4964269;28;20039;-79
2022/06/01 02:32:41;;;;;;;6.57;5.97;;;;;;;9.36;52.23;101227.03;4953648;28;20047;-79
2022/06/01 02:35:09;;;;;;;9.50;6.95;;;;;;;9.38;52.10;101226.09;4941357;28;20093;-78
2022/06/01 02:37:39;;;;;;;9.98;7.88;;;;;;;9.36;51.93;101234.88;4955383;28;20043;-79
2022/06/01 02:40:09;;;;;;;9.52;7.75;;;;;;;9.31;52.50;101232.41;4956783;28;20553;-77
2022/06/01 02:42:43;;;;;;;10.20;7.70;;;;;;;9.39;52.39;101235.66;4954160;28;20104;-78
2022/06/01 02:45:10;;;;;;;11.07;7.90;;;;;;;9.31;52.11;101241.97;4955812;28;20125;-78
2022/06/01 02:47:43;;;;;;;9.63;8.63;;;;;;;8.92;53.16;101253.50;4938638;28;20063;-80
2022/06/01 02:50:12;;;;;;;14.32;9.00;;;;;;;9.10;52.82;101238.25;4952538;28;20031;-77
2022/06/01 02:52:39;;;;;;;8.98;7.63;;;;;;;9.14;52.66;101245.94;4960189;28;20712;-78
2022/06/01 02:55:06;;;;;;;8.10;6.97;;;;;;;9.26;52.85;101249.09;4956828;28;20046;-76
2022/06/01 02:57:33;;;;;;;9.90;7.60;;;;;;;9.34;52.67;101253.19;4956721;28;20043;-76
2022/06/01 02:59:58;;;;;;;8.68;7.75;;;;;;;9.32;52.51;101249.78;4954976;28;20045;-77
2022/06/01 03:02:25;;;;;;;11.60;8.50;;;;;;;9.44;52.24;101252.94;4957626;28;20050;-78
2022/06/01 03:04:52;;;;;;;15.75;9.05;;;;;;;9.41;52.45;101253.88;4968238;28;20047;-77
2022/06/01 03:07:18;;;;;;;11.18;8.35;;;;;;;9.34;52.70;101247.97;4963715;28;20614;-78
2022/06/01 03:09:44;;;;;;;9.75;8.75;;;;;;;9.18;52.67;101249.28;4963979;28;20030;-77
2022/06/01 03:12:10;;;;;;;12.23;9.25;;;;;;;9.39;52.17;101248.69;4938213;28;20047;-77
2022/06/01 03:14:36;;;;;;;11.20;9.52;;;;;;;9.40;52.37;101239.09;4959465;28;20484;-76
2022/06/01 03:17:06;;;;;;;9.85;8.13;;;;;;;9.38;52.68;101253.94;4953930;28;20023;-78
2022/06/01 03:19:31;;;;;;;11.27;9.52;;;;;;;9.33;52.37;101248.00;4969499;28;20576;-77
2022/06/01 03:21:57;;;;;;;12.93;10.07;;;;;;;9.37;52.78;101247.88;4951954;28;20142;-76
2022/06/01 03:24:22;;;;;;;13.82;9.93;;;;;;;9.23;52.80;101244.81;4935991;28;20039;-75
2022/06/01 03:26:48;;;;;;;11.85;8.57;;;;;;;8.88;52.86;101238.81;4940815;28;20011;-81
2022/06/01 03:29:14;;;;;;;11.02;8.18;;;;;;;8.52;53.61;101235.41;4964720;28;20113;-78
2022/06/01 03:31:41;;;;;;;9.13;7.68;;;;;;;8.50;54.35;101230.22;4956992;28;20644;-78
2022/06/01 03:34:06;;;;;;;12.88;7.15;;;;;;;8.31;54.86;101226.38;4930491;28;20367;-78
2022/06/01 03:36:32;;;;;;;11.57;6.80;;;;;;;8.40;54.62;101226.13;4949785;28;20106;-77
2022/06/01 03:38:58;;;;;;;7.25;5.50;;;;;;;8.43;54.39;101220.88;4964882;28;20057;-78
2022/06/01 03:41:27;;;;;;;7.07;6.38;;;;;;;8.32;53.96;101217.69;4953233;28;20043;-79
2022/06/01 03:46:38;;;;;;;6.43;5.43;;;;;;;8.48;53.63;101218.16;4965717;28;20038;-78
2022/06/01 03:49:03;;;;;;;8.35;6.00;;;;;;;8.47;53.64;101232.94;4957457;28;20118;-78
2022/06/01 03:51:29;;;;;;;7.90;6.32;;;;;;;8.39;53.86;101244.44;4966964;28;20046;-78
2022/06/01 03:53:54;;;;;;;7.32;6.20;;;;;;;8.49;53.62;101240.69;4965107;28;20741;-77
2022/06/01 03:56:23;;;;;;;7.18;5.95;;;;;;;8.47;54.15;101243.34;4959449;28;20035;-79
2022/06/01 03:58:50;;;;;;;6.90;6.03;;;;;;;8.46;54.18;101233.81;4968233;28;20157;-77
2022/06/01 04:01:17;;;;;;;8.00;6.57;;;;;;;8.39;53.83;101240.06;4968144;28;20050;-78
2022/06/01 04:03:43;;;;;;;6.10;5.50;;;;;;;8.34;54.60;101239.34;4949589;28;20043;-78
2022/06/01 04:06:09;;;;;;;8.63;6.60;;;;;;;8.40;54.57;101246.13;4950399;28;20073;-78
2022/06/01 04:08:34;;;;;;;10.07;6.80;;;;;;;8.50;54.09;101240.66;4956900;28;20035;-77
2022/06/01 04:11:00;;;;;;;9.77;7.43;;;;;;;8.56;54.67;101237.03;4958225;28;20065;-78
2022/06/01 04:13:27;;;;;;;6.88;6.05;;;;;;;8.60;54.69;101240.41;4949849;28;20109;-77
2022/06/01 04:15:52;;;;;;;7.78;5.95;;;;;;;8.72;54.47;101238.38;4952424;28;20035;-78
2022/06/01 04:18:18;;;;;;;8.57;6.90;;;;;;;8.89;53.74;101234.47;4953790;28;20063;-77
2022/06/01 04:20:45;;;;;;;9.32;7.10;;;;;;;8.97;53.04;101237.72;4961622;28;20038;-77
2022/06/01 04:23:11;;;;;;;8.75;6.55;;;;;;;8.98;53.48;101244.63;4953803;28;20513;-78
2022/06/01 04:25:36;;;;;;;10.13;7.63;;;;;;;9.07;53.46;101243.53;4967702;28;20050;-77
2022/06/01 04:28:02;;;;;;;8.82;6.95;;;;;;;9.21;53.24;101244.00;4938204;28;20042;-77
2022/06/01 04:30:28;;;;;;;8.80;6.55;;;;;;;9.13;53.03;101249.44;4941958;28;20121;-79
2022/06/01 04:32:55;;;;;;;11.05;7.25;;;;;;;9.25;53.48;101257.81;4954366;28;20043;-77
2022/06/01 04:35:22;;;;;;;11.43;7.65;;;;;;;9.34;53.45;101254.94;4957840;28;20015;-77
2022/06/01 04:37:48;;;;;;;10.20;8.05;;;;;;;9.46;53.57;101253.75;4956370;28;20356;-78
2022/06/01 04:40:14;;;;;;;7.85;7.05;;;;;;;9.64;53.45;101252.34;4967340;28;20139;-78
2022/06/01 04:42:41;;;;;;;10.05;7.88;;;;;;;9.70;53.03;101253.00;4969851;28;20040;-78
2022/06/01 04:45:10;;;;;;;10.13;7.30;;;;;;;9.95;53.28;101257.50;4952823;28;20089;-77
2022/06/01 04:47:35;;;;;;;12.70;8.60;;;;;;;10.14;52.01;101261.22;4958045;28;20049;-77
2022/06/01 04:50:01;;;;;;;9.98;8.93;;;;;;;10.20;52.18;101255.81;4955263;28;20101;-77
2022/06/01 04:52:27;;;;;;;10.23;7.65;;;;;;;10.50;52.55;101257.47;4954250;28;20043;-78
2022/06/01 04:54:52;;;;;;;9.88;8.60;;;;;;;10.73;51.82;101256.69;4957402;28;20039;-78
2022/06/01 04:57:18;;;;;;;10.10;8.52;;;;;;;10.67;51.01;101254.28;4968536;28;20138;-77
2022/06/01 04:59:43;;;;;;;11.93;9.00;;;;;;;10.63;51.48;101258.75;4970186;28;20030;-77
2022/06/01 05:02:09;;;;;;;9.15;7.72;;;;;;;10.64;51.57;101260.47;4939086;28;22302;-77
2022/06/01 05:04:34;;;;;;;7.88;6.72;;;;;;;10.78;51.64;101253.00;4956915;28;20543;-78
2022/06/01 05:07:00;;;;;;;9.88;8.57;;;;;;;10.94;51.30;101247.25;4955901;28;20066;-78
2022/06/01 05:09:27;;;;;;;8.45;7.43;;;;;;;11.14;51.30;101244.78;4959444;28;20058;-77
2022/06/01 05:11:53;;;;;;;8.63;7.65;;;;;;;11.31;50.63;101249.41;4964443;28;20113;-78
2022/06/01 05:14:19;;;;;;;10.23;8.40;;;;;;;11.44;50.67;101245.41;4968988;28;20047;-79
2022/06/01 05:16:44;;;;;;;9.02;7.22;;;;;;;11.58;49.76;101241.44;4958519;28;20061;-80
2022/06/01 05:19:10;;;;;;;8.95;7.95;;;;;;;11.81;49.56;101246.63;4957411;28;20388;-77
2022/06/01 05:21:35;;;;;;;9.10;6.70;;;;;;;12.00;48.94;101245.91;4960802;28;20034;-76
2022/06/01 05:24:01;;;;;;;8.73;7.18;;;;;;;12.31;48.33;101234.19;4962152;28;20557;-77
2022/06/01 05:26:27;;;;;;;8.32;7.40;;;;;;;12.54;47.27;101234.06;4977048;28;20196;-77
2022/06/01 05:28:52;;;;;;;11.63;7.55;;;;;;;12.54;47.31;101235.84;4959769;28;20035;-78
2022/06/01 05:31:19;;;;;;;8.30;7.32;;;;;;;12.57;47.18;101235.72;4951059;28;20031;-77
2022/06/01 05:33:45;;;;;;;7.82;7.03;;;;;;;12.50;46.63;101241.19;4957799;28;20039;-77
2022/06/01 05:36:15;;;;;;;9.35;7.40;;;;;;;12.56;47.20;101245.34;4974584;28;20053;-78
2022/06/01 05:38:42;;;;;;;7.72;6.15;;;;;;;12.53;46.65;101249.84;4948698;28;20520;-78
2022/06/01 05:41:08;;;;;;;5.82;4.90;;;;;;;12.37;45.89;101245.25;4958420;28;20055;-78
2022/06/01 05:43:35;;;;;;;6.88;5.82;;;;;;;12.34;46.44;101247.19;4973655;28;20043;-78
2022/06/01 05:46:02;;;;;;;9.52;5.22;;;;;;;12.24;46.42;101260.63;4956671;28;20855;-76
2022/06/01 05:48:28;;;;;;;7.07;5.68;;;;;;;12.07;47.33;101256.09;4950179;28;20075;-77
2022/06/01 05:50:54;;;;;;;10.63;6.88;;;;;;;11.95;47.06;101256.56;4950866;28;20692;-76
2022/06/01 05:53:19;;;;;;;8.40;6.65;;;;;;;11.83;47.44;101268.38;4960012;28;20781;-78
2022/06/01 05:55:45;;;;;;;6.93;5.80;;;;;;;11.77;48.35;101258.13;4974118;28;20031;-78
2022/06/01 05:58:27;;;;;;;8.23;7.07;;;;;;;11.77;47.98;101259.88;4972800;28;20066;-78
2022/06/01 06:00:54;;;;;;;9.35;5.85;;;;;;;11.87;48.92;101262.13;4957699;28;20494;-78
2022/06/01 06:03:23;;;;;;;8.75;6.75;;;;;;;12.05;48.74;101264.94;4972181;28;20047;-78
2022/06/01 06:08:34;;;;;;;8.27;5.32;;;;;;;12.22;48.39;101272.97;4971228;28;20047;-77
2022/06/01 06:11:00;;;;;;;7.55;6.85;;;;;;;12.26;47.58;101269.28;4961926;28;20102;-77
2022/06/01 06:13:25;;;;;;;7.07;5.90;;;;;;;12.23;47.44;101272.03;4947289;28;20039;-78
2022/06/01 06:15:51;;;;;;;9.02;5.97;;;;;;;12.19;47.68;101273.06;4972755;28;20259;-76
2022/06/01 06:18:16;;;;;;;8.35;6.97;;;;;;;12.07;48.08;101278.81;4961025;28;20074;-78
2022/06/01 06:20:44;;;;;;;8.90;6.47;;;;;;;12.13;47.84;101283.78;4942326;28;20417;-77
2022/06/01 06:23:11;;;;;;;7.53;6.82;;;;;;;12.40;47.79;101276.59;4963592;28;20164;-78
2022/06/01 06:25:37;;;;;;;6.05;4.80;;;;;;;12.73;48.03;101273.50;4976003;28;20035;-78
2022/06/01 06:28:03;;;;;;;10.65;6.65;;;;;;;12.99;46.44;101269.75;4954513;28;20042;-77
2022/06/01 06:30:29;;;;;;;7.13;5.35;;;;;;;13.36;45.84;101273.38;4962678;28;20062;-78
2022/06/01 06:32:55;;;;;;;8.60;5.75;;;;;;;13.79;44.64;101281.91;4957278;28;20222;-78
2022/06/01 06:35:21;;;;;;;5.57;4.90;;;;;;;15.08;43.01;101275.53;4964598;28;20038;-77
2022/06/01 06:38:32;;;;;;;5.55;5.03;;;;;;;18.78;36.55;101277.97;4951249;28;20046;-78
2022/06/01 06:48:30;;;;;;;3.92;2.80;;;;;;;19.79;29.42;101270.00;4928609;28;20049;-79
2022/06/01 06:52:30;;;;;;;3.70;1.98;;;;;;;17.52;32.04;101271.19;4969754;28;20073;-78
2022/06/01 06:55:16;;;;;;;2.03;1.83;;;;;;;16.29;34.52;101275.94;4936687;28;20047;-78
2022/06/01 06:58:16;;;;;;;2.33;1.63;;;;;;;15.50;35.08;101282.06;4944363;28;20049;-78
2022/06/01 07:01:04;;;;;;;2.83;2.00;;;;;;;14.87;35.80;101282.75;4965480;28;20035;-78
2022/06/01 07:03:31;;;;;;;3.45;2.08;;;;;;;14.53;36.46;101281.84;4965689;28;20050;-79
2022/06/01 07:06:09;;;;;;;3.92;2.88;;;;;;;14.22;38.54;101279.84;4980894;28;20123;-75
2022/06/01 07:08:41;;;;;;;3.47;2.33;;;;;;;14.00;38.71;101276.56;4968077;28;20031;-79
2022/06/01 07:11:10;;;;;;;1.73;1.58;;;;;;;13.88;38.28;101280.63;4981118;28;20046;-79
2022/06/01 07:13:37;;;;;;;3.30;2.38;;;;;;;13.93;38.32;101283.88;4938002;28;20335;-78
2022/06/01 07:16:11;;;;;;;3.05;2.47;;;;;;;13.73;39.54;101282.19;4957945;28;20031;-78
2022/06/01 07:18:39;;;;;;;3.17;2.28;;;;;;;13.71;39.62;101284.03;4952187;28;20089;-77
2022/06/01 07:21:06;;;;;;;2.53;2.33;;;;;;;13.73;39.96;101284.81;4938913;28;20098;-79
2022/06/01 07:23:32;;;;;;;4.80;3.38;;;;;;;14.08;38.80;101288.41;4935619;28;20054;-78
2022/06/01 07:25:58;;;;;;;2.97;2.67;;;;;;;14.32;38.10;101291.63;4950084;28;20027;-78
2022/06/01 07:28:24;;;;;;;3.13;2.80;;;;;;;14.40;38.39;101293.00;4954620;28;20039;-78
2022/06/01 07:30:56;;;;;;;3.70;3.15;;;;;;;14.64;37.16;101285.72;4958429;28;20083;-78
2022/06/01 07:33:23;;;;;;;7.45;2.75;;;;;;;15.03;37.22;101288.06;4949925;28;20660;-78
2022/06/01 07:35:48;;;;;;;2.70;2.50;;;;;;;15.97;33.60;101286.50;4963006;28;20081;-79
2022/06/01 07:43:42;;;;;;;3.03;2.63;;;;;;;15.87;32.87;101295.84;4965593;28;20159;-77
2022/06/01 07:46:09;;;;;;;11.18;9.43;;;;;;;16.11;33.68;101298.09;4949677;28;20031;-77
2022/06/01 07:48:34;;;;;;;6.15;4.70;;;;;;;16.30;33.51;101298.72;4953193;28;20046;-80
2022/06/01 07:51:00;;;;;;;2.58;2.17;;;;;;;16.53;32.44;101304.44;4956943;28;20609;-78
2022/06/01 07:53:26;;;;;;;3.08;2.40;;;;;;;16.04;33.59;101300.22;4966906;28;20047;-79
2022/06/01 07:55:52;;;;;;;4.90;2.00;;;;;;;15.83;35.06;101296.97;4946760;28;20035;-79
2022/06/01 07:58:18;;;;;;;1.80;1.40;;;;;;;16.26;33.98;101305.09;4965111;28;20062;-79
2022/06/01 08:00:43;;;;;;;1.05;0.93;;;;;;;17.05;33.94;101296.09;4959169;28;20038;-76
2022/06/01 08:03:15;;;;;;;2.13;1.27;;;;;;;17.34;31.61;101296.13;4947123;28;20061;-80
2022/06/01 08:05:41;;;;;;;2.38;1.65;;;;;;;17.57;31.90;101299.97;4961405;28;20516;-79
2022/06/01 08:08:08;;;;;;;2.58;1.52;;;;;;;17.14;31.12;101300.81;4946085;28;20047;-80
2022/06/01 08:10:35;;;;;;;2.13;1.90;;;;;;;16.89;33.18;101297.97;4965781;28;20057;-79
2022/06/01 08:13:07;;;;;;;3.72;2.10;;;;;;;17.06;32.09;101296.94;4941476;28;20171;-83
2022/06/01 08:15:45;;;;;;;4.68;1.95;;;;;;;18.26;29.48;101293.75;4976725;28;20067;-77
2022/06/01 08:18:15;;;;;;;1.90;1.55;;;;;;;19.10;28.13;101291.69;4945487;28;20516;-77
2022/06/01 08:20:42;;;;;;;1.88;1.55;;;;;;;18.84;28.24;101291.63;4966767;28;20043;-77
2022/06/01 08:23:08;;;;;;;3.88;1.75;;;;;;;18.96;28.82;101289.13;4959686;28;20059;-77
2022/06/01 08:25:34;;;;;;;3.22;2.25;;;;;;;19.14;29.72;101287.84;4976000;28;20039;-79
2022/06/01 08:28:00;;;;;;;2.53;2.08;;;;;;;19.43;28.37;101291.06;4971504;28;20082;-77
2022/06/01 08:30:28;;;;;;;4.78;1.90;;;;;;;18.80;28.68;101295.44;4952964;28;20037;-78
2022/06/01 08:32:54;;;;;;;3.72;2.63;;;;;;;18.20;30.11;101298.59;4963627;28;20070;-78
2022/06/01 08:35:32;;;;;;;2.47;2.28;;;;;;;18.18;29.24;101293.38;4958260;28;20035;-80
2022/06/01 08:37:59;;;;;;;2.67;2.33;;;;;;;17.66;30.19;101302.03;4963726;28;20505;-78
2022/06/01 08:40:29;;;;;;;2.25;1.95;;;;;;;16.73;31.75;101303.28;4960781;28;20138;-79
2022/06/01 08:43:10;;;;;;;2.42;2.17;;;;;;;16.11;32.82;101306.84;4963204;28;20035;-80
2022/06/01 08:45:36;;;;;;;2.53;2.15;;;;;;;15.77;33.50;101305.19;4979186;28;20455;-81
2022/06/01 08:48:04;;;;;;;2.38;2.10;;;;;;;15.33;34.74;101301.41;4961162;28;20039;-79
2022/06/01 08:50:38;;;;;;;3.10;1.85;;;;;;;15.82;33.39;101307.56;4967779;28;20039;-78
2022/06/01 08:53:06;;;;;;;2.22;1.50;;;;;;;15.83;32.97;101315.41;4961920;28;20404;-79
2022/06/01 08:55:55;;;;;;;3.50;1.92;;;;;;;15.54;34.75;101306.47;4979632;28;20455;-79
2022/06/01 08:58:30;;;;;;;2.30;1.80;;;;;;;15.56;34.38;101310.72;4978036;28;20057;-78
2022/06/01 09:01:19;;;;;;;2.05;1.70;;;;;;;15.74;34.49;101310.66;4960065;28;20035;-79
2022/06/01 09:04:00;;;;;;;4.55;2.17;;;;;;;15.71;33.78;101314.31;4939710;28;20403;-78
2022/06/01 09:06:35;;;;;;;3.92;2.20;;;;;;;15.56;33.87;101315.97;4959298;28;20461;-77
2022/06/01 09:09:16;;;;;;;3.72;2.00;;;;;;;14.96;35.14;101315.63;4967993;28;20102;-80
2022/06/01 09:11:46;;;;;;;3.42;2.00;;;;;;;14.94;35.89;101320.13;4950145;28;20102;-78
2022/06/01 09:14:19;;;;;;;3.35;2.60;;;;;;;14.66;36.60;101325.94;4981328;28;20109;-79
2022/06/01 09:16:51;;;;;;;6.82;2.75;;;;;;;14.71;36.34;101319.50;4979429;28;20422;-78
2022/06/01 09:19:21;;;;;;;;;;;;;;;14.73;36.28;101324.72;4964767;28;20046;-79
2022/06/01 09:24:53;;;;;;;5.20;4.20;;;;;;;14.91;37.32;101325.56;4981525;28;20070;-78
2022/06/01 09:27:35;;;;;;;5.50;4.70;;;;;;;15.16;36.99;101327.75;4961849;28;20150;-79
2022/06/01 09:30:21;;;;;;;5.30;4.75;;;;;;;15.35;35.92;101327.69;4967120;28;20039;-79
2022/06/01 09:32:59;;;;;;;5.90;3.80;;;;;;;15.75;35.22;101325.50;4952259;28;20070;-81
2022/06/01 09:35:28;;;;;;;6.10;4.20;;;;;;;16.17;35.86;101324.09;4964479;28;20042;-79
2022/06/01 09:37:54;;;;;;;6.40;3.95;;;;;;;16.42;34.61;101321.78;4949717;28;20042;-78
2022/06/01 09:40:28;;;;;;;6.70;4.68;;;;;;;16.65;35.33;101324.00;4966331;28;20319;-77
2022/06/01 09:42:54;;;;;;;5.20;3.80;;;;;;;16.74;35.35;101326.09;4983681;28;20054;-79
2022/06/01 09:45:27;;;;;;;5.47;3.53;;;;;;;16.21;36.63;101317.72;4946753;28;20066;-78
2022/06/01 09:48:07;;;;;;;5.55;4.07;;;;;;;16.08;35.84;101321.97;4966051;28;20047;-78
2022/06/01 09:50:34;;;;;;;5.70;3.80;;;;;;;16.01;36.47;101329.38;4982630;28;20027;-76
2022/06/01 09:53:11;;;;;;;6.40;3.50;;;;;;;16.04;37.04;101331.00;4952705;28;20060;-76
2022/06/01 09:55:58;;;;;;;8.95;3.25;;;;;;;15.82;37.16;101323.38;4967171;28;20057;-78
2022/06/01 10:06:57;;;;;;;3.47;2.45;;;;;;;14.89;38.74;101323.00;4980642;28;20513;-77
2022/06/01 10:09:29;;;;;;;5.88;2.95;;;;;;;14.81;40.05;101325.16;4965692;28;20079;-78
2022/06/01 10:11:56;;;;;;;6.10;2.90;;;;;;;14.56;39.28;101323.75;4965702;28;20051;-77
2022/06/01 10:14:32;;;;;;;3.13;2.78;;;;;;;14.67;39.21;101322.38;4947770;28;20163;-76
2022/06/01 10:17:17;;;;;;;4.95;2.80;;;;;;;14.52;39.68;101329.25;4970849;28;20516;-78
2022/06/01 10:19:54;;;;;;;4.53;2.63;;;;;;;14.60;39.77;101323.63;4969861;28;20047;-78
2022/06/01 10:22:33;;;;;;;6.13;3.67;;;;;;;14.08;39.24;101330.47;4964350;28;20134;-76
2022/06/01 10:25:05;;;;;;;4.93;3.47;;;;;;;14.44;39.63;101331.41;4983452;28;20476;-77
2022/06/01 10:27:39;;;;;;;4.20;3.05;;;;;;;14.21;40.70;101330.72;4977737;28;20125;-77
2022/06/01 10:30:24;;;;;;;5.32;2.97;;;;;;;14.00;41.62;101342.25;4981047;28;20057;-77
2022/06/01 10:33:03;;;;;;;6.47;3.30;;;;;;;13.77;42.50;101348.59;4956780;28;20047;-74
2022/06/01 10:35:51;;;;;;;5.13;4.53;;;;;;;13.08;44.05;101357.72;4957985;28;20126;-78
2022/06/01 10:38:28;;;;;;;8.50;4.93;;;;;;;12.56;46.85;101360.72;4966124;28;20087;-76
2022/06/01 10:41:21;;;;;;;5.03;4.63;;;;;;;11.96;48.39;101367.47;4958477;28;20031;-78
2022/06/01 10:44:11;;;;;;;7.95;6.10;;;;;;;11.39;50.29;101380.81;4955791;28;20870;-79
2022/06/01 10:46:49;;;;;;;6.25;5.28;;;;;;;10.63;53.01;101390.31;4960008;28;20125;-75
2022/06/01 10:49:27;;;;;;;9.60;6.20;;;;;;;9.68;53.79;101393.16;4943955;28;20497;-77
2022/06/01 10:52:20;;;;;;;7.15;5.93;;;;;;;9.39;53.18;101397.41;4955501;28;20043;-78
2022/06/01 10:54:52;;;;;;;5.30;3.80;;;;;;;9.00;53.12;101408.84;4958673;28;20043;-77
2022/06/01 10:57:20;;;;;;;12.40;5.28;;;;;;;8.44;55.13;101412.72;4970829;28;20054;-78
2022/06/01 10:59:47;;;;;;;7.35;4.70;;;;;;;8.91;53.69;101400.34;4955687;28;20037;-76
2022/06/01 11:02:44;;;;;;;8.07;5.00;;;;;;;9.01;53.63;101405.34;4965373;28;20047;-77
2022/06/01 11:05:23;;;;;;;6.78;5.15;;;;;;;9.39;53.59;101391.34;4956718;28;20050;-77
2022/06/01 11:08:00;;;;;;;7.50;5.70;;;;;;;9.43;52.79;101397.31;4956601;28;20077;-77
2022/06/01 11:10:29;;;;;;;8.18;6.13;;;;;;;9.46;52.80;101399.84;4971988;28;20050;-79
2022/06/01 11:13:18;;;;;;;7.05;5.07;;;;;;;9.17;53.21;101391.88;4959798;28;20334;-77
2022/06/01 11:16:27;;;;;;;7.18;4.75;;;;;;;9.35;53.37;101395.75;4953094;28;20101;-78
2022/06/01 11:19:02;;;;;;;5.20;4.40;;;;;;;9.22;53.75;101394.38;4952043;28;20054;-77
2022/06/01 11:21:46;;;;;;;10.63;3.08;;;;;;;8.90;54.19;101398.66;4973406;28;20122;-77
2022/06/01 11:24:35;;;;;;;4.75;3.85;;;;;;;9.40;53.55;101395.63;4967955;28;20035;-76
2022/06/01 11:27:11;;;;;;;4.25;3.25;;;;;;;9.38;53.48;101395.66;4952712;28;20035;-75
2022/06/01 11:29:56;;;;;;;4.28;3.05;;;;;;;9.37;53.51;101391.38;4965684;28;20078;-76
2022/06/01 11:32:30;;;;;;;3.83;2.58;;;;;;;9.57;53.28;101392.59;4952778;28;20109;-77
2022/06/01 11:34:58;;;;;;;3.17;2.67;;;;;;;9.67;53.33;101398.41;4949216;28;20415;-76
2022/06/01 11:38:10;;;;;;;2.83;2.47;;;;;;;9.73;52.84;101391.25;4968435;28;20735;-77
2022/06/01 11:40:38;;;;;;;3.97;3.28;;;;;;;9.92;52.86;101385.53;4935643;28;20047;-76
2022/06/01 11:43:29;;;;;;;4.63;3.55;;;;;;;9.95;52.71;101390.69;4966215;28;20066;-76
2022/06/01 11:46:00;;;;;;;3.67;3.33;;;;;;;10.07;52.68;101389.44;4961724;28;20062;-77
2022/06/01 11:48:31;;;;;;;4.68;2.97;;;;;;;10.15;52.12;101388.31;4941394;28;20089;-78
2022/06/01 11:51:18;;;;;;;3.17;2.55;;;;;;;10.19;51.83;101389.94;4967436;28;20038;-78
2022/06/01 11:54:08;;;;;;;4.57;2.40;;;;;;;10.35;51.92;101398.19;4952894;28;20043;-78
2022/06/01 11:56:59;;;;;;;4.80;2.75;;;;;;;10.17;51.67;101396.13;4955512;28;20034;-78
2022/06/01 11:59:32;;;;;;;4.40;2.73;;;;;;;10.34;51.51;101408.66;4951028;28;20135;-77
2022/06/01 12:02:17;;;;;;;3.65;2.63;;;;;;;10.49;52.00;101415.19;4954581;28;20054;-78
2022/06/01 12:05:01;;;;;;;4.00;3.05;;;;;;;10.48;51.42;101418.69;4957442;28;20062;-78
2022/06/01 12:07:38;;;;;;;3.65;3.10;;;;;;;10.68;52.12;101418.91;4956480;28;20071;-80
2022/06/01 12:10:24;;;;;;;2.05;1.65;;;;;;;10.94;51.49;101419.88;4943808;28;20425;-78
2022/06/01 12:12:58;;;;;;;1.83;1.48;;;;;;;11.19;50.94;101422.53;4933569;28;20050;-78
2022/06/01 12:16:03;;;;;;;4.70;2.35;;;;;;;11.37;50.38;101421.88;4958138;28;20074;-78
2022/06/01 12:18:29;;;;;;;3.88;3.47;;;;;;;11.46;50.52;101421.59;4956392;28;20673;-75
2022/06/01 12:21:20;;;;;;;4.60;3.25;;;;;;;11.52;50.44;101424.91;4955390;28;20126;-78
2022/06/01 12:29:40;;;;;;;3.80;2.25;;;;;;;12.27;48.07;101428.25;4980359;28;20046;-77
2022/06/01 12:32:10;;;;;;;2.35;1.50;;;;;;;12.79;47.45;101435.03;4964710;28;20035;-78